createdAt,value
2019-05-19T00:00:57.501Z,16.3
2019-05-19T00:01:58.897Z,16.2
2019-05-19T00:03:00.295Z,16.2
2019-05-19T00:04:01.731Z,16.3
2019-05-19T00:05:03.197Z,16.2
2019-05-19T00:06:04.638Z,16.3
2019-05-19T00:07:06.020Z,16.2
2019-05-19T00:08:07.415Z,16.3
2019-05-19T00:09:08.817Z,16.2
2019-05-19T00:10:10.217Z,16.2
2019-05-19T00:11:11.654Z,16.3
2019-05-19T00:12:13.156Z,16.2
2019-05-19T00:13:14.552Z,16.2
2019-05-19T00:14:15.940Z,16.2
2019-05-19T00:15:17.396Z,16.1
2019-05-19T00:16:18.791Z,16.2
2019-05-19T00:17:20.195Z,16.2
2019-05-19T00:18:21.720Z,16.2
2019-05-19T00:19:26.816Z,16.2
2019-05-19T00:20:24.467Z,16.1
2019-05-19T00:21:25.858Z,16.1
2019-05-19T00:22:27.246Z,16.1
2019-05-19T00:23:28.650Z,16.1
2019-05-19T00:24:30.089Z,16.1
2019-05-19T00:25:31.501Z,16.1
2019-05-19T00:26:33.181Z,16.0
2019-05-19T00:27:34.565Z,16.1
2019-05-19T00:28:35.955Z,16.1
2019-05-19T00:29:37.431Z,16.0
2019-05-19T00:30:38.823Z,16.0
2019-05-19T00:31:40.219Z,16.1
2019-05-19T00:32:41.698Z,16.0
2019-05-19T00:33:43.086Z,16.0
2019-05-19T00:34:44.535Z,16.0
2019-05-19T00:35:45.918Z,16.0
2019-05-19T00:36:47.306Z,15.9
2019-05-19T00:37:48.699Z,15.9
2019-05-19T00:38:50.090Z,16.0
2019-05-19T00:39:51.480Z,16.0
2019-05-19T00:40:52.955Z,16.0
2019-05-19T00:41:54.350Z,15.9
2019-05-19T00:42:55.757Z,15.9
2019-05-19T00:43:57.299Z,16.0
2019-05-19T00:44:58.689Z,16.0
2019-05-19T00:46:00.085Z,16.0
2019-05-19T00:47:01.562Z,16.0
2019-05-19T00:48:02.947Z,16.0
2019-05-19T00:49:04.401Z,16.0
2019-05-19T00:50:06.097Z,16.0
2019-05-19T00:51:07.486Z,16.0
2019-05-19T00:52:08.930Z,16.0
2019-05-19T00:53:10.339Z,16.0
2019-05-19T00:54:11.729Z,15.9
2019-05-19T00:55:13.199Z,16.0
2019-05-19T00:56:14.589Z,16.0
2019-05-19T00:57:16.004Z,15.9
2019-05-19T00:58:17.534Z,15.9
2019-05-19T00:59:18.920Z,15.9
2019-05-19T01:00:20.310Z,16.0
2019-05-19T01:01:21.789Z,15.9
2019-05-19T01:02:23.184Z,16.0
2019-05-19T01:03:24.576Z,15.9
2019-05-19T01:04:25.999Z,15.8
2019-05-19T01:05:27.412Z,15.8
2019-05-19T01:06:28.775Z,15.7
2019-05-19T01:07:30.227Z,15.8
2019-05-19T01:08:31.616Z,15.8
2019-05-19T01:09:33.059Z,15.7
2019-05-19T01:10:34.445Z,15.7
2019-05-19T01:11:35.837Z,15.7
2019-05-19T01:12:37.311Z,15.7
2019-05-19T01:13:38.713Z,15.7
2019-05-19T01:14:40.088Z,15.8
2019-05-19T01:15:41.605Z,15.7
2019-05-19T01:16:42.999Z,15.6
2019-05-19T01:17:44.389Z,15.6
2019-05-19T01:18:45.838Z,15.6
2019-05-19T01:19:55.545Z,15.6
2019-05-19T01:20:48.582Z,15.6
2019-05-19T01:21:50.038Z,15.5
2019-05-19T01:22:51.433Z,15.6
2019-05-19T01:23:52.831Z,15.5
2019-05-19T01:24:54.226Z,15.5
2019-05-19T01:25:55.625Z,15.5
2019-05-19T01:26:57.085Z,15.5
2019-05-19T01:27:58.443Z,15.5
2019-05-19T01:28:59.842Z,15.5
2019-05-19T01:30:01.316Z,15.5
2019-05-19T01:31:02.702Z,15.5
2019-05-19T01:32:04.092Z,15.5
2019-05-19T01:33:06.366Z,15.5
2019-05-19T01:34:07.663Z,15.5
2019-05-19T01:35:10.062Z,15.5
2019-05-19T01:36:11.432Z,15.5
2019-05-19T01:37:12.960Z,15.5
2019-05-19T01:38:14.380Z,15.4
2019-05-19T01:39:15.773Z,15.5
2019-05-19T01:40:17.210Z,15.5
2019-05-19T01:41:18.600Z,15.5
2019-05-19T01:42:19.993Z,15.5
2019-05-19T01:43:21.610Z,15.5
2019-05-19T01:44:22.998Z,15.5
2019-05-19T01:45:24.399Z,15.5
2019-05-19T01:46:25.899Z,15.6
2019-05-19T01:47:27.275Z,15.5
2019-05-19T01:48:28.673Z,15.5
2019-05-19T01:49:30.176Z,15.5
2019-05-19T01:50:31.592Z,15.6
2019-05-19T01:51:32.987Z,15.5
2019-05-19T01:52:34.383Z,15.5
2019-05-19T01:53:35.797Z,15.5
2019-05-19T01:54:37.357Z,15.5
2019-05-19T01:55:38.741Z,15.6
2019-05-19T01:56:40.131Z,15.6
2019-05-19T01:57:41.636Z,15.6
2019-05-19T01:58:43.024Z,15.5
2019-05-19T01:59:44.416Z,15.5
2019-05-19T02:00:45.877Z,15.6
2019-05-19T02:01:47.275Z,15.5
2019-05-19T02:02:48.688Z,15.5
2019-05-19T02:03:50.173Z,15.5
2019-05-19T02:04:51.569Z,15.6
2019-05-19T02:05:52.973Z,15.5
2019-05-19T02:06:54.360Z,15.5
2019-05-19T02:07:55.783Z,15.5
2019-05-19T02:08:57.255Z,15.5
2019-05-19T02:09:58.661Z,15.5
2019-05-19T02:11:00.053Z,15.6
2019-05-19T02:12:01.513Z,15.5
2019-05-19T02:13:05.136Z,15.5
2019-05-19T02:14:04.318Z,15.5
2019-05-19T02:15:05.824Z,15.5
2019-05-19T02:16:07.214Z,15.5
2019-05-19T02:17:08.606Z,15.5
2019-05-19T02:18:10.054Z,15.4
2019-05-19T02:19:11.451Z,15.4
2019-05-19T02:20:12.840Z,15.5
2019-05-19T02:21:14.271Z,15.4
2019-05-19T02:22:15.667Z,15.4
2019-05-19T02:23:17.083Z,15.4
2019-05-19T02:24:18.457Z,15.4
2019-05-19T02:25:19.887Z,15.4
2019-05-19T02:26:21.586Z,15.3
2019-05-19T02:27:23.113Z,15.4
2019-05-19T02:28:24.506Z,15.4
2019-05-19T02:29:25.982Z,15.4
2019-05-19T02:30:27.363Z,15.3
2019-05-19T02:31:28.766Z,15.4
2019-05-19T02:32:30.141Z,15.4
2019-05-19T02:33:35.334Z,15.4
2019-05-19T02:34:32.911Z,15.4
2019-05-19T02:35:34.271Z,15.4
2019-05-19T02:36:35.663Z,15.4
2019-05-19T02:37:37.052Z,15.3
2019-05-19T02:38:38.440Z,15.3
2019-05-19T02:39:39.844Z,15.3
2019-05-19T02:40:41.221Z,15.3
2019-05-19T02:41:42.613Z,15.3
2019-05-19T02:42:44.004Z,15.3
2019-05-19T02:43:45.393Z,15.2
2019-05-19T02:44:46.792Z,15.3
2019-05-19T02:45:48.177Z,15.3
2019-05-19T02:46:49.571Z,15.2
2019-05-19T02:47:50.959Z,15.2
2019-05-19T02:48:52.354Z,15.2
2019-05-19T02:49:53.744Z,15.2
2019-05-19T02:50:55.138Z,15.1
2019-05-19T02:51:56.534Z,15.2
2019-05-19T02:52:57.926Z,15.2
2019-05-19T02:53:59.315Z,15.2
2019-05-19T02:55:00.709Z,15.2
2019-05-19T02:56:02.107Z,15.2
2019-05-19T02:57:03.495Z,15.2
2019-05-19T02:58:04.889Z,15.2
2019-05-19T02:59:06.282Z,15.2
2019-05-19T03:00:07.684Z,15.2
2019-05-19T03:01:09.067Z,15.2
2019-05-19T03:02:10.466Z,15.2
2019-05-19T03:03:11.857Z,15.3
2019-05-19T03:04:13.249Z,15.2
2019-05-19T03:05:14.657Z,15.2
2019-05-19T03:06:16.069Z,15.2
2019-05-19T03:07:17.434Z,15.2
2019-05-19T03:08:18.824Z,15.2
2019-05-19T03:09:20.218Z,15.1
2019-05-19T03:10:21.612Z,15.2
2019-05-19T03:11:23.001Z,15.2
2019-05-19T03:12:24.396Z,15.2
2019-05-19T03:13:25.783Z,15.2
2019-05-19T03:14:27.170Z,15.2
2019-05-19T03:15:28.566Z,15.2
2019-05-19T03:16:29.992Z,15.1
2019-05-19T03:17:31.384Z,15.1
2019-05-19T03:18:32.866Z,15.1
2019-05-19T03:19:34.294Z,15.2
2019-05-19T03:20:35.681Z,15.2
2019-05-19T03:21:37.076Z,15.2
2019-05-19T03:22:38.467Z,15.2
2019-05-19T03:23:39.868Z,15.2
2019-05-19T03:24:41.259Z,15.1
2019-05-19T03:25:44.285Z,15.1
2019-05-19T03:26:44.023Z,15.1
2019-05-19T03:27:45.411Z,15.0
2019-05-19T03:28:46.816Z,15.1
2019-05-19T03:29:48.209Z,15.1
2019-05-19T03:30:49.583Z,15.1
2019-05-19T03:31:50.981Z,15.1
2019-05-19T03:32:52.399Z,15.1
2019-05-19T03:33:53.780Z,15.1
2019-05-19T03:34:55.168Z,15.0
2019-05-19T03:35:56.577Z,15.0
2019-05-19T03:36:57.951Z,15.0
2019-05-19T03:37:59.354Z,15.0
2019-05-19T03:39:00.734Z,15.0
2019-05-19T03:40:02.151Z,14.9
2019-05-19T03:41:03.536Z,14.9
2019-05-19T03:42:04.924Z,14.9
2019-05-19T03:43:06.315Z,15.0
2019-05-19T03:44:07.705Z,14.9
2019-05-19T03:45:09.104Z,15.0
2019-05-19T03:46:10.504Z,14.9
2019-05-19T03:47:11.891Z,14.9
2019-05-19T03:48:13.286Z,14.9
2019-05-19T03:49:14.678Z,14.9
2019-05-19T03:50:16.072Z,15.0
2019-05-19T03:51:30.032Z,14.9
2019-05-19T03:52:18.816Z,14.9
2019-05-19T03:53:20.208Z,14.8
2019-05-19T03:54:21.607Z,14.9
2019-05-19T03:55:22.996Z,14.9
2019-05-19T03:56:24.387Z,14.8
2019-05-19T03:57:25.784Z,14.9
2019-05-19T03:58:27.174Z,14.9
2019-05-19T03:59:28.565Z,14.9
2019-05-19T04:00:29.956Z,14.8
2019-05-19T04:01:31.351Z,14.9
2019-05-19T04:02:32.740Z,14.9
2019-05-19T04:03:34.135Z,14.9
2019-05-19T04:04:35.536Z,14.9
2019-05-19T04:05:36.920Z,14.9
2019-05-19T04:06:38.312Z,14.9
2019-05-19T04:07:39.712Z,14.8
2019-05-19T04:08:41.110Z,14.8
2019-05-19T04:09:42.500Z,14.8
2019-05-19T04:10:43.957Z,14.8
2019-05-19T04:11:45.485Z,14.8
2019-05-19T04:12:46.943Z,14.8
2019-05-19T04:13:48.388Z,14.8
2019-05-19T04:14:49.781Z,14.8
2019-05-19T04:15:51.185Z,14.8
2019-05-19T04:16:52.569Z,14.8
2019-05-19T04:17:53.968Z,14.8
2019-05-19T04:18:55.358Z,14.8
2019-05-19T04:19:56.757Z,14.8
2019-05-19T04:20:58.146Z,14.8
2019-05-19T04:21:59.544Z,14.8
2019-05-19T04:23:00.944Z,14.8
2019-05-19T04:24:02.336Z,14.8
2019-05-19T04:25:03.722Z,14.8
2019-05-19T04:26:05.116Z,14.8
2019-05-19T04:27:06.584Z,14.8
2019-05-19T04:28:07.981Z,14.8
2019-05-19T04:29:09.376Z,14.8
2019-05-19T04:30:10.775Z,14.8
2019-05-19T04:31:12.163Z,14.9
2019-05-19T04:32:13.561Z,14.9
2019-05-19T04:33:14.947Z,14.9
2019-05-19T04:34:16.338Z,14.9
2019-05-19T04:35:17.730Z,14.9
2019-05-19T04:36:19.131Z,15.0
2019-05-19T04:37:20.533Z,14.9
2019-05-19T04:38:21.887Z,14.9
2019-05-19T04:39:23.280Z,14.9
2019-05-19T04:40:24.671Z,15.0
2019-05-19T04:41:26.070Z,15.0
2019-05-19T04:42:27.468Z,15.0
2019-05-19T04:43:28.864Z,15.0
2019-05-19T04:44:30.277Z,15.0
2019-05-19T04:45:31.667Z,15.0
2019-05-19T04:46:33.063Z,15.1
2019-05-19T04:47:34.460Z,15.0
2019-05-19T04:48:35.941Z,15.1
2019-05-19T04:49:37.351Z,15.1
2019-05-19T04:50:38.753Z,15.1
2019-05-19T04:51:40.146Z,15.1
2019-05-19T04:52:41.538Z,15.1
2019-05-19T04:53:42.932Z,15.1
2019-05-19T04:54:44.322Z,15.1
2019-05-19T04:55:45.723Z,15.1
2019-05-19T04:56:47.118Z,15.1
2019-05-19T04:57:48.517Z,15.2
2019-05-19T04:58:49.907Z,15.2
2019-05-19T04:59:51.301Z,15.1
2019-05-19T05:00:52.692Z,15.1
2019-05-19T05:01:54.082Z,15.1
2019-05-19T05:02:55.549Z,15.2
2019-05-19T05:03:57.033Z,15.3
2019-05-19T05:04:58.427Z,15.2
2019-05-19T05:05:59.821Z,15.2
2019-05-19T05:07:01.219Z,15.2
2019-05-19T05:08:02.612Z,15.3
2019-05-19T05:09:04.005Z,15.3
2019-05-19T05:10:05.397Z,15.4
2019-05-19T05:11:06.792Z,15.5
2019-05-19T05:12:08.186Z,15.4
2019-05-19T05:13:09.577Z,15.3
2019-05-19T05:14:10.973Z,15.5
2019-05-19T05:15:12.366Z,15.4
2019-05-19T05:16:13.761Z,15.5
2019-05-19T05:17:15.163Z,15.5
2019-05-19T05:18:16.575Z,15.5
2019-05-19T05:19:17.953Z,15.5
2019-05-19T05:20:19.429Z,15.6
2019-05-19T05:21:20.783Z,15.6
2019-05-19T05:22:22.603Z,15.5
2019-05-19T05:23:23.535Z,15.5
2019-05-19T05:24:28.318Z,15.5
2019-05-19T05:25:26.292Z,15.6
2019-05-19T05:26:27.687Z,15.7
2019-05-19T05:27:29.080Z,15.7
2019-05-19T05:28:30.480Z,15.7
2019-05-19T05:29:31.873Z,15.8
2019-05-19T05:30:33.271Z,15.7
2019-05-19T05:31:34.666Z,15.7
2019-05-19T05:32:36.062Z,15.8
2019-05-19T05:33:37.474Z,15.7
2019-05-19T05:34:38.852Z,15.7
2019-05-19T05:35:40.249Z,15.7
2019-05-19T05:36:41.642Z,15.8
2019-05-19T05:37:43.032Z,15.7
2019-05-19T05:38:44.428Z,15.8
2019-05-19T05:39:45.819Z,15.8
2019-05-19T05:40:47.214Z,15.8
2019-05-19T05:41:48.608Z,15.7
2019-05-19T05:42:50.005Z,15.8
2019-05-19T05:43:51.453Z,15.8
2019-05-19T05:44:52.856Z,15.7
2019-05-19T05:45:54.259Z,15.8
2019-05-19T05:46:55.654Z,15.9
2019-05-19T05:47:57.069Z,15.8
2019-05-19T05:48:58.530Z,15.7
2019-05-19T05:49:59.928Z,15.8
2019-05-19T05:51:01.343Z,15.9
2019-05-19T05:52:02.739Z,15.9
2019-05-19T05:53:04.148Z,15.9
2019-05-19T05:54:05.545Z,15.9
2019-05-19T05:55:07.030Z,15.9
2019-05-19T05:56:08.593Z,15.9
2019-05-19T05:57:10.010Z,15.9
2019-05-19T05:58:11.377Z,15.8
2019-05-19T05:59:12.772Z,15.9
2019-05-19T06:00:15.859Z,15.9
2019-05-19T06:01:15.530Z,16.0
2019-05-19T06:02:16.923Z,15.9
2019-05-19T06:03:18.318Z,16.0
2019-05-19T06:04:19.713Z,16.1
2019-05-19T06:05:21.113Z,16.0
2019-05-19T06:06:22.519Z,16.0
2019-05-19T06:07:23.909Z,16.1
2019-05-19T06:08:25.306Z,16.1
2019-05-19T06:09:26.716Z,16.1
2019-05-19T06:10:28.111Z,16.2
2019-05-19T06:11:29.518Z,16.2
2019-05-19T06:12:30.954Z,16.2
2019-05-19T06:13:32.350Z,16.2
2019-05-19T06:14:33.745Z,16.2
2019-05-19T06:15:35.147Z,16.2
2019-05-19T06:16:36.541Z,16.3
2019-05-19T06:17:37.941Z,16.2
2019-05-19T06:18:39.348Z,16.4
2019-05-19T06:19:40.747Z,16.3
2019-05-19T06:20:42.132Z,16.3
2019-05-19T06:21:43.553Z,16.4
2019-05-19T06:22:55.815Z,16.5
2019-05-19T06:23:46.279Z,16.4
2019-05-19T06:24:47.685Z,16.5
2019-05-19T06:25:49.090Z,16.5
2019-05-19T06:26:50.505Z,16.4
2019-05-19T06:27:51.880Z,16.4
2019-05-19T06:28:53.274Z,16.6
2019-05-19T06:29:54.670Z,16.6
2019-05-19T06:30:56.067Z,16.6
2019-05-19T06:31:57.505Z,16.7
2019-05-19T06:32:58.898Z,16.7
2019-05-19T06:34:00.372Z,16.7
2019-05-19T06:35:01.694Z,16.8
2019-05-19T06:36:03.076Z,16.9
2019-05-19T06:37:04.471Z,16.8
2019-05-19T06:38:05.909Z,16.8
2019-05-19T06:39:07.316Z,16.8
2019-05-19T06:40:08.717Z,16.9
2019-05-19T06:41:10.109Z,17.0
2019-05-19T06:42:11.505Z,17.0
2019-05-19T06:43:12.907Z,17.2
2019-05-19T06:44:14.316Z,17.1
2019-05-19T06:45:15.718Z,17.2
2019-05-19T06:46:17.146Z,17.2
2019-05-19T06:47:18.656Z,17.3
2019-05-19T06:48:20.058Z,17.3
2019-05-19T06:49:21.454Z,17.4
2019-05-19T06:50:22.849Z,17.4
2019-05-19T06:51:24.242Z,17.4
2019-05-19T06:52:25.659Z,17.4
2019-05-19T06:53:27.056Z,17.4
2019-05-19T06:54:28.466Z,17.4
2019-05-19T06:55:29.849Z,17.5
2019-05-19T06:56:31.250Z,17.4
2019-05-19T06:57:32.645Z,17.5
2019-05-19T06:58:34.059Z,17.4
2019-05-19T06:59:35.474Z,17.5
2019-05-19T07:00:36.851Z,17.4
2019-05-19T07:01:38.248Z,17.5
2019-05-19T07:02:39.638Z,17.5
2019-05-19T07:03:41.037Z,17.5
2019-05-19T07:04:42.430Z,17.4
2019-05-19T07:05:43.828Z,17.7
2019-05-19T07:06:45.533Z,17.6
2019-05-19T07:07:46.920Z,17.7
2019-05-19T07:08:48.320Z,17.9
2019-05-19T07:09:57.895Z,17.9
2019-05-19T07:10:51.098Z,17.9
2019-05-19T07:11:52.500Z,17.9
2019-05-19T07:12:53.895Z,17.9
2019-05-19T07:13:55.294Z,17.9
2019-05-19T07:14:56.697Z,17.9
2019-05-19T07:15:58.096Z,18.0
2019-05-19T07:16:59.493Z,17.9
2019-05-19T07:18:00.918Z,18.0
2019-05-19T07:19:02.319Z,17.9
2019-05-19T07:20:03.710Z,18.0
2019-05-19T07:21:05.133Z,17.9
2019-05-19T07:22:06.536Z,18.0
2019-05-19T07:23:07.964Z,18.1
2019-05-19T07:24:09.361Z,18.2
2019-05-19T07:25:10.784Z,18.1
2019-05-19T07:26:12.211Z,18.1
2019-05-19T07:27:13.617Z,18.3
2019-05-19T07:28:15.065Z,18.2
2019-05-19T07:29:16.458Z,18.3
2019-05-19T07:30:17.856Z,18.4
2019-05-19T07:31:19.255Z,18.4
2019-05-19T07:32:20.652Z,18.5
2019-05-19T07:33:22.047Z,18.6
2019-05-19T07:34:23.442Z,18.6
2019-05-19T07:35:24.845Z,18.7
2019-05-19T07:36:26.413Z,18.7
2019-05-19T07:37:27.883Z,18.9
2019-05-19T07:38:29.332Z,18.9
2019-05-19T07:39:30.742Z,18.9
2019-05-19T07:40:32.126Z,18.9
2019-05-19T07:41:33.525Z,19.0
2019-05-19T07:42:34.984Z,19.0
2019-05-19T07:43:36.369Z,19.0
2019-05-19T07:44:37.774Z,19.2
2019-05-19T07:45:39.209Z,19.2
2019-05-19T07:46:40.640Z,19.3
2019-05-19T07:47:42.040Z,19.4
2019-05-19T07:48:43.440Z,19.4
2019-05-19T07:49:44.907Z,19.4
2019-05-19T07:50:46.334Z,19.5
2019-05-19T07:51:47.749Z,19.4
2019-05-19T07:52:49.137Z,19.4
2019-05-19T07:53:50.588Z,19.5
2019-05-19T07:54:51.891Z,19.5
2019-05-19T07:55:53.292Z,19.4
2019-05-19T07:56:54.724Z,19.3
2019-05-19T07:57:56.156Z,19.4
2019-05-19T07:58:57.560Z,19.4
2019-05-19T07:59:58.956Z,19.4
2019-05-19T08:01:00.357Z,19.5
2019-05-19T08:02:01.759Z,19.5
2019-05-19T08:03:03.216Z,19.4
2019-05-19T08:04:04.528Z,19.5
2019-05-19T08:05:05.931Z,19.5
2019-05-19T08:06:07.670Z,19.6
2019-05-19T08:07:08.813Z,19.6
2019-05-19T08:08:10.208Z,19.7
2019-05-19T08:09:11.601Z,19.6
2019-05-19T08:10:13.001Z,19.7
2019-05-19T08:11:14.396Z,19.6
2019-05-19T08:12:15.796Z,19.7
2019-05-19T08:13:17.199Z,19.7
2019-05-19T08:14:18.592Z,19.7
2019-05-19T08:15:20.016Z,19.6
2019-05-19T08:16:21.422Z,19.7
2019-05-19T08:17:25.757Z,19.7
2019-05-19T08:18:24.178Z,19.6
2019-05-19T08:19:25.578Z,19.7
2019-05-19T08:20:26.977Z,19.7
2019-05-19T08:21:28.370Z,19.7
2019-05-19T08:22:29.791Z,19.8
2019-05-19T08:23:31.188Z,19.8
2019-05-19T08:24:32.584Z,19.8
2019-05-19T08:25:34.112Z,19.8
2019-05-19T08:26:35.618Z,19.9
2019-05-19T08:27:37.012Z,19.9
2019-05-19T08:28:38.434Z,20.0
2019-05-19T08:29:39.862Z,20.0
2019-05-19T08:30:41.348Z,19.9
2019-05-19T08:31:42.737Z,20.0
2019-05-19T08:32:44.139Z,20.1
2019-05-19T08:33:45.569Z,20.0
2019-05-19T08:34:46.959Z,20.0
2019-05-19T08:35:48.356Z,20.1
2019-05-19T08:36:49.755Z,20.3
2019-05-19T08:37:51.164Z,20.3
2019-05-19T08:38:52.551Z,20.4
2019-05-19T08:39:53.950Z,20.4
2019-05-19T08:40:55.386Z,20.5
2019-05-19T08:41:56.792Z,20.5
2019-05-19T08:42:58.189Z,20.6
2019-05-19T08:43:59.590Z,20.7
2019-05-19T08:45:00.986Z,20.7
2019-05-19T08:46:02.385Z,20.7
2019-05-19T08:47:03.801Z,20.8
2019-05-19T08:48:05.201Z,20.9
2019-05-19T08:49:06.622Z,20.9
2019-05-19T08:50:08.009Z,20.9
2019-05-19T08:51:09.402Z,20.9
2019-05-19T08:52:10.804Z,20.9
2019-05-19T08:53:12.211Z,20.9
2019-05-19T08:54:15.907Z,20.9
2019-05-19T08:55:14.993Z,21.0
2019-05-19T08:56:16.391Z,21.0
2019-05-19T08:57:17.811Z,21.0
2019-05-19T08:58:19.260Z,21.0
2019-05-19T08:59:20.667Z,21.0
2019-05-19T09:00:22.071Z,21.0
2019-05-19T09:01:23.470Z,21.0
2019-05-19T09:02:24.874Z,21.1
2019-05-19T09:03:26.268Z,21.2
2019-05-19T09:04:28.593Z,21.3
2019-05-19T09:05:29.995Z,21.3
2019-05-19T09:06:31.452Z,21.4
2019-05-19T09:07:32.844Z,21.5
2019-05-19T09:08:34.246Z,21.4
2019-05-19T09:09:35.656Z,21.4
2019-05-19T09:10:37.065Z,21.4
2019-05-19T09:11:38.459Z,21.4
2019-05-19T09:12:40.088Z,21.5
2019-05-19T09:13:41.574Z,21.5
2019-05-19T09:14:43.015Z,21.5
2019-05-19T09:15:44.460Z,21.4
2019-05-19T09:16:45.862Z,21.4
2019-05-19T09:17:47.262Z,21.4
2019-05-19T09:18:48.672Z,21.6
2019-05-19T09:19:50.124Z,21.7
2019-05-19T09:20:51.523Z,21.7
2019-05-19T09:21:52.925Z,21.8
2019-05-19T09:22:54.320Z,21.8
2019-05-19T09:23:55.722Z,21.8
2019-05-19T09:24:57.132Z,21.8
2019-05-19T09:25:58.554Z,21.9
2019-05-19T09:26:59.950Z,22.1
2019-05-19T09:28:01.355Z,22.0
2019-05-19T09:29:02.820Z,22.2
2019-05-19T09:30:04.221Z,22.2
2019-05-19T09:31:05.626Z,22.4
2019-05-19T09:32:07.040Z,22.5
2019-05-19T09:33:08.449Z,22.6
2019-05-19T09:34:09.967Z,22.6
2019-05-19T09:35:11.387Z,22.7
2019-05-19T09:36:12.787Z,22.6
2019-05-19T09:37:14.186Z,22.6
2019-05-19T09:38:15.583Z,22.6
2019-05-19T09:39:17.035Z,22.6
2019-05-19T09:40:18.431Z,22.7
2019-05-19T09:41:19.832Z,22.7
2019-05-19T09:42:21.228Z,22.7
2019-05-19T09:43:22.629Z,22.6
2019-05-19T09:44:24.023Z,22.6
2019-05-19T09:45:25.423Z,22.6
2019-05-19T09:46:26.823Z,22.7
2019-05-19T09:47:28.315Z,22.6
2019-05-19T09:48:29.674Z,22.7
2019-05-19T09:49:31.125Z,22.8
2019-05-19T09:50:32.517Z,22.7
2019-05-19T09:51:33.916Z,22.7
2019-05-19T09:52:35.319Z,22.7
2019-05-19T09:53:36.749Z,22.7
2019-05-19T09:54:45.262Z,22.6
2019-05-19T09:55:39.527Z,22.5
2019-05-19T09:56:40.929Z,22.5
2019-05-19T09:57:42.340Z,22.5
2019-05-19T09:58:43.737Z,22.4
2019-05-19T09:59:45.137Z,22.4
2019-05-19T10:00:46.664Z,22.4
2019-05-19T10:01:48.087Z,22.4
2019-05-19T10:02:49.485Z,22.5
2019-05-19T10:03:50.898Z,22.6
2019-05-19T10:04:52.298Z,22.8
2019-05-19T10:05:53.692Z,22.8
2019-05-19T10:06:55.165Z,22.8
2019-05-19T10:07:56.590Z,22.9
2019-05-19T10:08:57.989Z,22.9
2019-05-19T10:09:59.384Z,23.1
2019-05-19T10:11:00.781Z,23.2
2019-05-19T10:12:02.199Z,23.2
2019-05-19T10:13:04.223Z,23.4
2019-05-19T10:14:05.628Z,23.4
2019-05-19T10:15:07.218Z,23.5
2019-05-19T10:16:08.626Z,23.5
2019-05-19T10:17:10.141Z,23.6
2019-05-19T10:18:11.413Z,23.7
2019-05-19T10:19:12.811Z,23.7
2019-05-19T10:20:14.214Z,23.8
2019-05-19T10:21:15.615Z,23.8
2019-05-19T10:22:17.022Z,24.0
2019-05-19T10:23:18.428Z,24.0
2019-05-19T10:24:19.818Z,24.1
2019-05-19T10:25:22.707Z,24.2
2019-05-19T10:26:22.576Z,24.4
2019-05-19T10:27:25.226Z,24.4
2019-05-19T10:28:26.661Z,24.6
2019-05-19T10:29:28.164Z,24.8
2019-05-19T10:30:29.429Z,24.9
2019-05-19T10:31:30.893Z,25.1
2019-05-19T10:32:32.298Z,25.3
2019-05-19T10:33:33.697Z,25.4
2019-05-19T10:34:35.891Z,25.5
2019-05-19T10:35:37.373Z,25.6
2019-05-19T10:36:38.746Z,25.7
2019-05-19T10:37:40.137Z,25.7
2019-05-19T10:38:41.530Z,25.9
2019-05-19T10:39:42.931Z,26.1
2019-05-19T10:40:44.335Z,26.1
2019-05-19T10:41:45.736Z,26.3
2019-05-19T10:42:48.194Z,26.4
2019-05-19T10:43:49.555Z,26.5
2019-05-19T10:44:52.218Z,26.8
2019-05-19T10:45:53.437Z,26.9
2019-05-19T10:46:54.837Z,27.0
2019-05-19T10:47:56.240Z,27.2
2019-05-19T10:48:57.642Z,27.3
2019-05-19T10:49:59.047Z,27.5
2019-05-19T10:51:00.450Z,27.7
2019-05-19T10:52:01.864Z,27.8
2019-05-19T10:53:04.499Z,27.8
2019-05-19T10:54:05.900Z,27.7
2019-05-19T10:55:07.310Z,27.7
2019-05-19T10:56:08.711Z,27.7
2019-05-19T10:57:10.113Z,27.8
2019-05-19T10:58:11.515Z,27.9
2019-05-19T10:59:12.915Z,27.9
2019-05-19T11:00:14.381Z,28.0
2019-05-19T11:01:16.791Z,28.0
2019-05-19T11:02:18.086Z,28.0
2019-05-19T11:03:19.497Z,28.0
2019-05-19T11:04:21.642Z,28.0
2019-05-19T11:05:23.041Z,28.1
2019-05-19T11:06:24.438Z,28.2
2019-05-19T11:07:25.838Z,28.3
2019-05-19T11:08:27.761Z,28.4
2019-05-19T11:09:29.174Z,28.5
2019-05-19T11:10:30.586Z,28.7
2019-05-19T11:11:32.222Z,28.9
2019-05-19T11:12:33.577Z,28.9
2019-05-19T11:13:35.111Z,29.1
2019-05-19T11:14:36.523Z,29.2
2019-05-19T11:15:37.930Z,29.3
2019-05-19T11:16:39.360Z,29.4
2019-05-19T11:17:40.764Z,29.6
2019-05-19T11:18:42.180Z,29.7
2019-05-19T11:19:43.575Z,29.7
2019-05-19T11:20:44.975Z,29.6
2019-05-19T11:21:46.383Z,29.8
2019-05-19T11:22:47.959Z,29.8
2019-05-19T11:23:49.564Z,29.9
2019-05-19T11:24:50.982Z,30.0
2019-05-19T11:25:52.388Z,30.0
2019-05-19T11:26:53.837Z,29.9
2019-05-19T11:27:55.239Z,30.0
2019-05-19T11:28:56.771Z,29.9
2019-05-19T11:29:58.068Z,29.9
2019-05-19T11:30:59.497Z,29.8
2019-05-19T11:32:00.999Z,29.7
2019-05-19T11:33:02.401Z,29.6
2019-05-19T11:34:03.799Z,29.7
2019-05-19T11:35:05.203Z,29.8
2019-05-19T11:36:06.601Z,29.7
2019-05-19T11:37:08.009Z,29.7
2019-05-19T11:38:09.422Z,29.8
2019-05-19T11:39:10.869Z,29.6
2019-05-19T11:40:12.259Z,29.8
2019-05-19T11:41:13.678Z,29.8
2019-05-19T11:42:15.100Z,30.0
2019-05-19T11:43:16.485Z,30.0
2019-05-19T11:44:17.889Z,30.0
2019-05-19T11:45:19.285Z,30.1
2019-05-19T11:46:21.910Z,30.1
2019-05-19T11:47:23.315Z,30.1
2019-05-19T11:48:24.778Z,30.1
2019-05-19T11:49:27.476Z,30.0
2019-05-19T11:50:28.885Z,29.9
2019-05-19T11:51:30.358Z,29.9
2019-05-19T11:52:32.632Z,29.8
2019-05-19T11:53:34.117Z,29.7
2019-05-19T11:54:36.607Z,29.6
2019-05-19T11:55:38.641Z,29.6
2019-05-19T11:56:40.369Z,29.5
2019-05-19T11:57:42.208Z,29.6
2019-05-19T11:58:44.757Z,29.5
2019-05-19T11:59:46.183Z,29.5
2019-05-19T12:00:47.697Z,29.5
2019-05-19T12:01:49.104Z,29.5
2019-05-19T12:02:50.535Z,29.7
2019-05-19T12:03:54.945Z,29.7
2019-05-19T12:04:53.462Z,29.7
2019-05-19T12:05:55.008Z,29.7
2019-05-19T12:06:57.070Z,29.7
2019-05-19T12:07:58.914Z,29.6
2019-05-19T12:09:01.500Z,29.5
2019-05-19T12:10:02.746Z,29.3
2019-05-19T12:11:04.147Z,29.3
2019-05-19T12:12:05.548Z,29.2
2019-05-19T12:13:06.949Z,29.3
2019-05-19T12:14:08.355Z,29.3
2019-05-19T12:15:09.793Z,29.3
2019-05-19T12:16:11.211Z,29.3
2019-05-19T12:17:12.829Z,29.4
2019-05-19T12:18:14.115Z,29.6
2019-05-19T12:19:15.514Z,29.5
2019-05-19T12:20:16.921Z,29.6
2019-05-19T12:21:18.353Z,29.6
2019-05-19T12:22:19.755Z,29.8
2019-05-19T12:23:21.157Z,29.9
2019-05-19T12:24:22.637Z,29.9
2019-05-19T12:25:24.042Z,30.0
2019-05-19T12:26:25.497Z,30.2
2019-05-19T12:27:26.957Z,30.2
2019-05-19T12:28:28.359Z,30.2
2019-05-19T12:29:29.775Z,30.4
2019-05-19T12:30:31.184Z,30.5
2019-05-19T12:31:32.587Z,30.4
2019-05-19T12:32:34.001Z,30.2
2019-05-19T12:33:35.394Z,30.3
2019-05-19T12:34:36.810Z,30.0
2019-05-19T12:35:38.223Z,29.8
2019-05-19T12:36:39.628Z,29.7
2019-05-19T12:37:41.045Z,29.6
2019-05-19T12:38:42.527Z,29.3
2019-05-19T12:39:43.940Z,29.2
2019-05-19T12:40:45.348Z,29.0
2019-05-19T12:41:46.749Z,28.9
2019-05-19T12:42:48.176Z,28.9
2019-05-19T12:43:49.580Z,28.7
2019-05-19T12:44:51.099Z,28.7
2019-05-19T12:45:52.516Z,28.5
2019-05-19T12:46:53.977Z,28.4
2019-05-19T12:47:55.373Z,28.3
2019-05-19T12:48:56.793Z,28.2
2019-05-19T12:49:58.199Z,28.0
2019-05-19T12:50:59.601Z,27.9
2019-05-19T12:52:01.002Z,27.7
2019-05-19T12:53:02.430Z,27.6
2019-05-19T12:54:03.838Z,27.6
2019-05-19T12:55:05.359Z,27.5
2019-05-19T12:56:06.619Z,27.3
2019-05-19T12:57:08.021Z,27.0
2019-05-19T12:58:09.421Z,26.9
2019-05-19T12:59:10.820Z,26.9
2019-05-19T13:00:12.249Z,26.8
2019-05-19T13:01:13.622Z,26.7
2019-05-19T13:02:15.024Z,26.6
2019-05-19T13:03:16.424Z,26.6
2019-05-19T13:04:17.873Z,26.5
2019-05-19T13:05:19.185Z,26.4
2019-05-19T13:06:20.590Z,26.4
2019-05-19T13:07:21.986Z,26.4
2019-05-19T13:08:23.386Z,26.4
2019-05-19T13:09:24.794Z,26.3
2019-05-19T13:10:26.198Z,26.2
2019-05-19T13:11:27.597Z,26.2
2019-05-19T13:12:29.001Z,26.1
2019-05-19T13:13:30.400Z,26.1
2019-05-19T13:14:31.800Z,25.9
2019-05-19T13:15:33.213Z,26.0
2019-05-19T13:16:34.603Z,25.9
2019-05-19T13:17:36.001Z,25.9
2019-05-19T13:18:37.408Z,25.8
2019-05-19T13:19:38.823Z,25.8
2019-05-19T13:20:40.216Z,25.6
2019-05-19T13:21:41.627Z,25.6
2019-05-19T13:22:43.014Z,25.7
2019-05-19T13:23:44.413Z,25.6
2019-05-19T13:24:45.812Z,25.4
2019-05-19T13:25:47.214Z,25.4
2019-05-19T13:26:56.411Z,25.5
2019-05-19T13:27:49.985Z,25.3
2019-05-19T13:28:51.600Z,25.3
2019-05-19T13:29:53.081Z,25.3
2019-05-19T13:30:54.762Z,25.2
2019-05-19T13:31:56.148Z,25.2
2019-05-19T13:32:57.707Z,25.2
2019-05-19T13:33:59.110Z,25.3
2019-05-19T13:35:00.511Z,25.1
2019-05-19T13:36:01.915Z,25.1
2019-05-19T13:37:03.320Z,25.0
2019-05-19T13:38:04.710Z,25.0